Largo — PFNC — position and weather

sailwx.info

Track history (hours):
 
Tides and Currents Weather Stations Pressure Air Temp Water Temp Dewpoint Dewpoint Depression Visibility Wind Speed Wind Dir Waves Ship Positions

Largo

Last reported at 2015-Jul-30 01:11 UTC. Time now 2015-Aug-02 00:17 UTC.
Position N 38°55' E 002°04'.

Length 91 m; draft 6.6 m.

Type: Cargo ship. MMSI: 245645000.

Date/timePositionNaut miles runAvg speedWind from/ knotsBaromVisibWave heightAir tempDewpointWater temp
2015-Jul-30 01:11N 38°55' E 002°04'17 9.0
2015-Jul-29 23:21N 39°06' E 001°49'17 9.2
2015-Jul-29 21:30N 39°15' E 001°31'18 9.0
2015-Jul-29 19:31N 39°24' E 001°11'63 1.2
2015-Jul-27 16:15N 39°58' E 000°02'0 0.0
2015-Jul-27 14:33N 39°58' E 000°02'  
2015-Jul-24 22:21N 39°58' E 000°02'0 0.0
2015-Jul-24 21:33N 39°58' E 000°02'0 0.0
2015-Jul-24 20:33N 39°58' E 000°02'0 0.0
2015-Jul-24 19:33N 39°58' E 000°02'0 0.0
2015-Jul-24 18:33N 39°58' E 000°02'0 0.0
2015-Jul-24 17:33N 39°58' E 000°02'0 0.4
2015-Jul-24 16:33N 39°57' E 000°02'7 6.8
2015-Jul-24 15:28N 39°52' E 000°08'8 8.9
2015-Jul-24 14:33N 39°44' E 000°11'9 8.8
2015-Jul-24 13:34N 39°35' E 000°14'9 8.9
2015-Jul-24 12:32N 39°26' E 000°17'9 8.8
2015-Jul-24 11:32N 39°18' E 000°20'9 9.0
2015-Jul-24 10:33N 39°09' E 000°23'9 8.9
2015-Jul-24 09:33N 39°01' E 000°26'9 8.9
2015-Jul-24 08:33N 38°52' E 000°29'9 8.9
2015-Jul-24 07:31N 38°43' E 000°33'9 9.0
2015-Jul-24 06:33N 38°35' E 000°35'8 8.4
2015-Jul-24 05:33N 38°27' E 000°38'8 8.4
2015-Jul-24 04:33N 38°19' E 000°41'9 8.6
2015-Jul-24 03:33N 38°10' E 000°44'8 8.4
2015-Jul-24 02:33N 38°02' E 000°47'8 8.4
2015-Jul-24 01:33N 37°54' E 000°50'8 8.5
2015-Jul-24 00:33N 37°46' E 000°53'8 8.4
2015-Jul-23 23:33N 37°38' E 000°55'8 8.5
2015-Jul-23 22:33N 37°30' E 000°58'9 8.8
2015-Jul-23 21:31N 37°21' E 001°02'10 9.4
2015-Jul-23 20:27N 37°11' E 001°05'910.1
2015-Jul-23 19:30N 37°02' E 001°08'14 9.9
2015-Jul-23 18:03N 36°48' E 001°13'6 9.3
2015-Jul-23 17:27N 36°43' E 001°15'8 8.9
2015-Jul-23 16:33N 36°35' E 001°18'4 0.4
2015-Jul-23 06:14N 36°32' E 001°19'0 0.0
2015-Jul-23 05:15N 36°32' E 001°19'0 0.0
2015-Jul-22 20:32N 36°32' E 001°19'0 0.0
2015-Jul-22 19:14N 36°32' E 001°19'0 0.0
2015-Jul-22 18:08N 36°32' E 001°19'0 0.0
2015-Jul-22 17:32N 36°32' E 001°19'0 0.0
2015-Jul-22 15:14N 36°32' E 001°19'0 0.0
2015-Jul-22 14:26N 36°32' E 001°19'0 0.0
2015-Jul-22 13:32N 36°32' E 001°19'0 0.0
2015-Jul-22 11:20N 36°32' E 001°19'0 0.0
2015-Jul-22 10:26N 36°32' E 001°19'0 0.0
2015-Jul-22 09:33N 36°32' E 001°19'0 0.0
2015-Jul-22 08:33N 36°32' E 001°19'0 0.0
2015-Jul-22 07:30N 36°32' E 001°19'0 0.0
2015-Jul-22 06:21N 36°32' E 001°19'0 0.0
2015-Jul-22 05:33N 36°32' E 001°19'0 0.0
2015-Jul-22 04:32N 36°32' E 001°19'0 0.0
2015-Jul-22 02:26N 36°32' E 001°19'0 0.0
2015-Jul-22 01:33N 36°32' E 001°19'0 0.0
2015-Jul-22 00:29N 36°32' E 001°19'0 0.0
2015-Jul-21 23:33N 36°32' E 001°19'0 0.0
2015-Jul-21 22:31N 36°32' E 001°19'0 0.0
2015-Jul-21 21:33N 36°32' E 001°19'0 0.0
2015-Jul-21 20:31N 36°32' E 001°19'0 0.0
2015-Jul-21 19:32N 36°32' E 001°19'0 0.0
2015-Jul-21 18:33N 36°32' E 001°19'0 0.0
2015-Jul-21 17:28N 36°32' E 001°19'0 0.0
2015-Jul-21 16:33N 36°32' E 001°19'0 0.0
2015-Jul-21 15:33N 36°32' E 001°19'0 0.0
2015-Jul-21 14:32N 36°32' E 001°19'0 0.0
2015-Jul-21 13:33N 36°32' E 001°19'0 0.0
2015-Jul-21 12:34N 36°32' E 001°19'0 0.0
2015-Jul-21 11:33N 36°32' E 001°19'1 1.2
2015-Jul-21 10:33N 36°32' E 001°18'0 0.0
2015-Jul-21 06:30N 36°32' E 001°18'0 0.0
2015-Jul-21 05:30N 36°32' E 001°18'0 0.0
2015-Jul-21 03:24N 36°32' E 001°17'0 0.0
2015-Jul-21 02:30N 36°32' E 001°17'0 0.0
2015-Jul-21 01:30N 36°32' E 001°17'0 0.0
2015-Jul-21 00:29N 36°32' E 001°17'0 0.0
2015-Jul-20 23:29N 36°32' E 001°17'0 0.0
2015-Jul-20 20:32N 36°32' E 001°17'0 0.0
2015-Jul-20 19:30N 36°32' E 001°17'0 0.0
2015-Jul-20 14:17N 36°32' E 001°17'0 0.0
2015-Jul-20 12:23N 36°32' E 001°17'0 0.0
2015-Jul-20 08:30N 36°32' E 001°18'0 0.0
2015-Jul-20 05:30N 36°32' E 001°18'  
Track history (hours):
 
Tides and Currents Weather Stations Pressure Air Temp Water Temp Dewpoint Dewpoint Depression Visibility Wind Speed Wind Dir Waves Ship Positions

Largo

Last reported at 2015-Jul-30 01:11 UTC. Time now 2015-Aug-02 00:17 UTC.
Position N 38°55' E 002°04'.

Length 91 m; draft 6.6 m.

Type: Cargo ship. MMSI: 245645000.

Date/timePositionNaut miles runAvg speedWind from/ knotsBaromVisibWave heightAir tempDewpointWater temp
2015-Jul-30 01:11N 38°55' E 002°04'17 9.0
2015-Jul-29 23:21N 39°06' E 001°49'17 9.2
2015-Jul-29 21:30N 39°15' E 001°31'18 9.0
2015-Jul-29 19:31N 39°24' E 001°11'63 1.2
2015-Jul-27 16:15N 39°58' E 000°02'0 0.0
2015-Jul-27 14:33N 39°58' E 000°02'  
2015-Jul-24 22:21N 39°58' E 000°02'0 0.0
2015-Jul-24 21:33N 39°58' E 000°02'0 0.0
2015-Jul-24 20:33N 39°58' E 000°02'0 0.0
2015-Jul-24 19:33N 39°58' E 000°02'0 0.0
2015-Jul-24 18:33N 39°58' E 000°02'0 0.0
2015-Jul-24 17:33N 39°58' E 000°02'0 0.4
2015-Jul-24 16:33N 39°57' E 000°02'7 6.8
2015-Jul-24 15:28N 39°52' E 000°08'8 8.9
2015-Jul-24 14:33N 39°44' E 000°11'9 8.8
2015-Jul-24 13:34N 39°35' E 000°14'9 8.9
2015-Jul-24 12:32N 39°26' E 000°17'9 8.8
2015-Jul-24 11:32N 39°18' E 000°20'9 9.0
2015-Jul-24 10:33N 39°09' E 000°23'9 8.9
2015-Jul-24 09:33N 39°01' E 000°26'9 8.9
2015-Jul-24 08:33N 38°52' E 000°29'9 8.9
2015-Jul-24 07:31N 38°43' E 000°33'9 9.0
2015-Jul-24 06:33N 38°35' E 000°35'8 8.4
2015-Jul-24 05:33N 38°27' E 000°38'8 8.4
2015-Jul-24 04:33N 38°19' E 000°41'9 8.6
2015-Jul-24 03:33N 38°10' E 000°44'8 8.4
2015-Jul-24 02:33N 38°02' E 000°47'8 8.4
2015-Jul-24 01:33N 37°54' E 000°50'8 8.5
2015-Jul-24 00:33N 37°46' E 000°53'8 8.4
2015-Jul-23 23:33N 37°38' E 000°55'8 8.5
2015-Jul-23 22:33N 37°30' E 000°58'9 8.8
2015-Jul-23 21:31N 37°21' E 001°02'10 9.4
2015-Jul-23 20:27N 37°11' E 001°05'910.1
2015-Jul-23 19:30N 37°02' E 001°08'14 9.9
2015-Jul-23 18:03N 36°48' E 001°13'6 9.3
2015-Jul-23 17:27N 36°43' E 001°15'8 8.9
2015-Jul-23 16:33N 36°35' E 001°18'4 0.4
2015-Jul-23 06:14N 36°32' E 001°19'0 0.0
2015-Jul-23 05:15N 36°32' E 001°19'0 0.0
2015-Jul-22 20:32N 36°32' E 001°19'0 0.0
2015-Jul-22 19:14N 36°32' E 001°19'0 0.0
2015-Jul-22 18:08N 36°32' E 001°19'0 0.0
2015-Jul-22 17:32N 36°32' E 001°19'0 0.0
2015-Jul-22 15:14N 36°32' E 001°19'0 0.0
2015-Jul-22 14:26N 36°32' E 001°19'0 0.0
2015-Jul-22 13:32N 36°32' E 001°19'0 0.0
2015-Jul-22 11:20N 36°32' E 001°19'0 0.0
2015-Jul-22 10:26N 36°32' E 001°19'0 0.0
2015-Jul-22 09:33N 36°32' E 001°19'0 0.0
2015-Jul-22 08:33N 36°32' E 001°19'0 0.0
2015-Jul-22 07:30N 36°32' E 001°19'0 0.0
2015-Jul-22 06:21N 36°32' E 001°19'0 0.0
2015-Jul-22 05:33N 36°32' E 001°19'0 0.0
2015-Jul-22 04:32N 36°32' E 001°19'0 0.0
2015-Jul-22 02:26N 36°32' E 001°19'0 0.0
2015-Jul-22 01:33N 36°32' E 001°19'0 0.0
2015-Jul-22 00:29N 36°32' E 001°19'0 0.0
2015-Jul-21 23:33N 36°32' E 001°19'0 0.0
2015-Jul-21 22:31N 36°32' E 001°19'0 0.0
2015-Jul-21 21:33N 36°32' E 001°19'0 0.0
2015-Jul-21 20:31N 36°32' E 001°19'0 0.0
2015-Jul-21 19:32N 36°32' E 001°19'0 0.0
2015-Jul-21 18:33N 36°32' E 001°19'0 0.0
2015-Jul-21 17:28N 36°32' E 001°19'0 0.0
2015-Jul-21 16:33N 36°32' E 001°19'0 0.0
2015-Jul-21 15:33N 36°32' E 001°19'0 0.0
2015-Jul-21 14:32N 36°32' E 001°19'0 0.0
2015-Jul-21 13:33N 36°32' E 001°19'0 0.0
2015-Jul-21 12:34N 36°32' E 001°19'0 0.0
2015-Jul-21 11:33N 36°32' E 001°19'1 1.2
2015-Jul-21 10:33N 36°32' E 001°18'0 0.0
2015-Jul-21 06:30N 36°32' E 001°18'0 0.0
2015-Jul-21 05:30N 36°32' E 001°18'0 0.0
2015-Jul-21 03:24N 36°32' E 001°17'0 0.0
2015-Jul-21 02:30N 36°32' E 001°17'0 0.0
2015-Jul-21 01:30N 36°32' E 001°17'0 0.0
2015-Jul-21 00:29N 36°32' E 001°17'0 0.0
2015-Jul-20 23:29N 36°32' E 001°17'0 0.0
2015-Jul-20 20:32N 36°32' E 001°17'0 0.0
2015-Jul-20 19:30N 36°32' E 001°17'0 0.0
2015-Jul-20 14:17N 36°32' E 001°17'0 0.0
2015-Jul-20 12:23N 36°32' E 001°17'0 0.0
2015-Jul-20 08:30N 36°32' E 001°18'0 0.0
2015-Jul-20 05:30N 36°32' E 001°18'  

Dump ship's entire track history